sensor_id;sensor_type;location;lat;lon;timestamp;P1;durP1;ratioP1;P2;durP2;ratioP2
73632;SDS011;61927;50.080;14.418;2022-10-22T00:02:21;30.00;;;18.00;;
73632;SDS011;61927;50.080;14.418;2022-10-22T00:04:47;30.75;;;17.40;;
73632;SDS011;61927;50.080;14.418;2022-10-22T00:07:14;27.42;;;17.60;;
73632;SDS011;61927;50.080;14.418;2022-10-22T00:09:41;28.55;;;17.33;;
73632;SDS011;61927;50.080;14.418;2022-10-22T00:12:07;33.45;;;18.17;;
73632;SDS011;61927;50.080;14.418;2022-10-22T00:14:32;33.70;;;17.98;;
73632;SDS011;61927;50.080;14.418;2022-10-22T00:16:58;26.98;;;17.65;;
73632;SDS011;61927;50.080;14.418;2022-10-22T00:19:25;25.80;;;17.20;;
73632;SDS011;61927;50.080;14.418;2022-10-22T00:21:51;27.25;;;17.45;;
73632;SDS011;61927;50.080;14.418;2022-10-22T00:24:17;33.00;;;17.58;;
73632;SDS011;61927;50.080;14.418;2022-10-22T00:26:43;35.83;;;17.92;;
73632;SDS011;61927;50.080;14.418;2022-10-22T00:29:08;26.63;;;17.15;;
73632;SDS011;61927;50.080;14.418;2022-10-22T00:31:34;30.02;;;18.60;;
73632;SDS011;61927;50.080;14.418;2022-10-22T00:34:00;28.00;;;17.42;;
73632;SDS011;61927;50.080;14.418;2022-10-22T00:36:26;24.00;;;17.05;;
73632;SDS011;61927;50.080;14.418;2022-10-22T00:38:52;25.75;;;17.90;;
73632;SDS011;61927;50.080;14.418;2022-10-22T00:41:17;27.33;;;18.75;;
73632;SDS011;61927;50.080;14.418;2022-10-22T00:43:53;28.75;;;17.95;;
73632;SDS011;61927;50.080;14.418;2022-10-22T00:46:19;25.88;;;17.48;;
73632;SDS011;61927;50.080;14.418;2022-10-22T00:48:44;26.88;;;16.55;;
73632;SDS011;61927;50.080;14.418;2022-10-22T00:51:10;26.77;;;16.35;;
73632;SDS011;61927;50.080;14.418;2022-10-22T00:53:37;28.70;;;16.90;;
73632;SDS011;61927;50.080;14.418;2022-10-22T00:56:06;25.13;;;16.52;;
73632;SDS011;61927;50.080;14.418;2022-10-22T00:58:33;26.02;;;16.27;;
73632;SDS011;61927;50.080;14.418;2022-10-22T01:01:01;25.42;;;15.63;;
73632;SDS011;61927;50.080;14.418;2022-10-22T01:03:27;28.10;;;16.00;;
73632;SDS011;61927;50.080;14.418;2022-10-22T01:05:55;29.65;;;16.88;;
73632;SDS011;61927;50.080;14.418;2022-10-22T01:11:35;24.52;;;16.08;;
73632;SDS011;61927;50.080;14.418;2022-10-22T01:14:17;28.75;;;17.25;;
73632;SDS011;61927;50.080;14.418;2022-10-22T01:16:57;23.70;;;15.30;;
73632;SDS011;61927;50.080;14.418;2022-10-22T01:25:09;24.30;;;16.60;;
73632;SDS011;61927;50.080;14.418;2022-10-22T01:30:45;26.58;;;16.42;;
73632;SDS011;61927;50.080;14.418;2022-10-22T01:33:14;23.15;;;16.38;;
73632;SDS011;61927;50.080;14.418;2022-10-22T01:35:43;29.48;;;17.20;;
73632;SDS011;61927;50.080;14.418;2022-10-22T01:38:14;27.30;;;17.15;;
73632;SDS011;61927;50.080;14.418;2022-10-22T01:40:43;25.92;;;16.83;;
73632;SDS011;61927;50.080;14.418;2022-10-22T01:43:09;25.42;;;16.73;;
73632;SDS011;61927;50.080;14.418;2022-10-22T01:45:41;27.33;;;17.70;;
73632;SDS011;61927;50.080;14.418;2022-10-22T01:53:50;22.75;;;16.63;;
73632;SDS011;61927;50.080;14.418;2022-10-22T01:58:57;34.65;;;19.67;;
73632;SDS011;61927;50.080;14.418;2022-10-22T02:02:02;22.35;;;15.60;;
73632;SDS011;61927;50.080;14.418;2022-10-22T02:04:41;25.92;;;16.65;;
73632;SDS011;61927;50.080;14.418;2022-10-22T02:07:13;27.67;;;17.50;;
73632;SDS011;61927;50.080;14.418;2022-10-22T02:09:42;24.10;;;16.42;;
73632;SDS011;61927;50.080;14.418;2022-10-22T02:12:09;24.23;;;16.17;;
73632;SDS011;61927;50.080;14.418;2022-10-22T02:14:38;31.45;;;16.67;;
73632;SDS011;61927;50.080;14.418;2022-10-22T02:17:07;30.85;;;17.45;;
73632;SDS011;61927;50.080;14.418;2022-10-22T02:19:45;27.27;;;16.75;;
73632;SDS011;61927;50.080;14.418;2022-10-22T02:22:16;26.77;;;16.25;;
73632;SDS011;61927;50.080;14.418;2022-10-22T02:24:42;25.98;;;15.48;;
73632;SDS011;61927;50.080;14.418;2022-10-22T02:30:00;30.00;;;16.33;;
73632;SDS011;61927;50.080;14.418;2022-10-22T02:32:35;29.88;;;16.20;;
73632;SDS011;61927;50.080;14.418;2022-10-22T02:35:20;27.60;;;16.67;;
73632;SDS011;61927;50.080;14.418;2022-10-22T02:37:48;24.52;;;16.55;;
73632;SDS011;61927;50.080;14.418;2022-10-22T02:40:15;30.30;;;16.48;;
73632;SDS011;61927;50.080;14.418;2022-10-22T02:42:42;26.63;;;15.95;;
73632;SDS011;61927;50.080;14.418;2022-10-22T02:45:08;28.98;;;16.38;;
73632;SDS011;61927;50.080;14.418;2022-10-22T02:47:34;23.58;;;16.33;;
73632;SDS011;61927;50.080;14.418;2022-10-22T02:50:00;26.88;;;15.63;;
73632;SDS011;61927;50.080;14.418;2022-10-22T02:52:25;26.27;;;16.95;;
73632;SDS011;61927;50.080;14.418;2022-10-22T02:54:51;25.65;;;15.13;;
73632;SDS011;61927;50.080;14.418;2022-10-22T02:57:16;27.77;;;16.30;;
73632;SDS011;61927;50.080;14.418;2022-10-22T02:59:42;25.17;;;15.80;;
73632;SDS011;61927;50.080;14.418;2022-10-22T03:02:08;22.38;;;15.50;;
73632;SDS011;61927;50.080;14.418;2022-10-22T03:04:33;27.65;;;15.80;;
73632;SDS011;61927;50.080;14.418;2022-10-22T03:06:59;25.85;;;15.73;;
73632;SDS011;61927;50.080;14.418;2022-10-22T03:09:24;25.10;;;15.43;;
73632;SDS011;61927;50.080;14.418;2022-10-22T03:11:50;25.45;;;14.85;;
73632;SDS011;61927;50.080;14.418;2022-10-22T03:14:16;29.13;;;15.40;;
73632;SDS011;61927;50.080;14.418;2022-10-22T03:16:42;28.48;;;17.35;;
73632;SDS011;61927;50.080;14.418;2022-10-22T03:19:07;65.18;;;38.78;;
73632;SDS011;61927;50.080;14.418;2022-10-22T03:21:34;46.28;;;28.70;;
73632;SDS011;61927;50.080;14.418;2022-10-22T03:24:15;23.80;;;15.13;;
73632;SDS011;61927;50.080;14.418;2022-10-22T03:26:44;26.55;;;15.18;;
73632;SDS011;61927;50.080;14.418;2022-10-22T03:29:13;26.33;;;14.90;;
73632;SDS011;61927;50.080;14.418;2022-10-22T03:31:40;26.83;;;14.10;;
73632;SDS011;61927;50.080;14.418;2022-10-22T03:34:05;21.98;;;14.18;;
73632;SDS011;61927;50.080;14.418;2022-10-22T03:36:31;26.73;;;14.63;;
73632;SDS011;61927;50.080;14.418;2022-10-22T03:38:58;24.02;;;13.95;;
73632;SDS011;61927;50.080;14.418;2022-10-22T03:41:25;21.63;;;14.50;;
73632;SDS011;61927;50.080;14.418;2022-10-22T03:43:51;20.42;;;14.13;;
73632;SDS011;61927;50.080;14.418;2022-10-22T03:46:18;36.33;;;14.23;;
73632;SDS011;61927;50.080;14.418;2022-10-22T03:48:44;28.90;;;14.10;;
73632;SDS011;61927;50.080;14.418;2022-10-22T03:51:10;20.67;;;13.43;;
73632;SDS011;61927;50.080;14.418;2022-10-22T03:53:36;26.17;;;15.43;;
73632;SDS011;61927;50.080;14.418;2022-10-22T03:56:01;26.73;;;15.38;;
73632;SDS011;61927;50.080;14.418;2022-10-22T03:58:27;26.00;;;14.48;;
73632;SDS011;61927;50.080;14.418;2022-10-22T04:00:53;28.65;;;14.90;;
73632;SDS011;61927;50.080;14.418;2022-10-22T04:03:18;24.88;;;13.95;;
73632;SDS011;61927;50.080;14.418;2022-10-22T04:05:44;22.77;;;14.00;;
73632;SDS011;61927;50.080;14.418;2022-10-22T04:08:10;22.10;;;13.55;;
73632;SDS011;61927;50.080;14.418;2022-10-22T04:10:35;30.23;;;14.50;;
73632;SDS011;61927;50.080;14.418;2022-10-22T04:13:01;27.45;;;14.85;;
73632;SDS011;61927;50.080;14.418;2022-10-22T04:15:26;26.85;;;13.77;;
73632;SDS011;61927;50.080;14.418;2022-10-22T04:17:53;23.92;;;14.35;;
73632;SDS011;61927;50.080;14.418;2022-10-22T04:20:19;21.20;;;13.50;;
73632;SDS011;61927;50.080;14.418;2022-10-22T04:22:45;26.88;;;14.10;;
73632;SDS011;61927;50.080;14.418;2022-10-22T04:25:10;24.95;;;14.18;;
73632;SDS011;61927;50.080;14.418;2022-10-22T04:27:36;30.10;;;14.55;;
73632;SDS011;61927;50.080;14.418;2022-10-22T04:30:02;28.00;;;14.60;;
73632;SDS011;61927;50.080;14.418;2022-10-22T04:32:29;23.40;;;13.90;;
73632;SDS011;61927;50.080;14.418;2022-10-22T04:34:55;23.30;;;13.82;;
73632;SDS011;61927;50.080;14.418;2022-10-22T04:37:20;28.60;;;14.50;;
73632;SDS011;61927;50.080;14.418;2022-10-22T04:39:46;30.17;;;15.02;;
73632;SDS011;61927;50.080;14.418;2022-10-22T04:42:11;28.58;;;14.13;;
73632;SDS011;61927;50.080;14.418;2022-10-22T04:44:37;23.75;;;13.25;;
73632;SDS011;61927;50.080;14.418;2022-10-22T04:47:02;25.92;;;15.05;;
73632;SDS011;61927;50.080;14.418;2022-10-22T04:49:28;23.75;;;13.93;;
73632;SDS011;61927;50.080;14.418;2022-10-22T04:51:54;26.50;;;14.30;;
73632;SDS011;61927;50.080;14.418;2022-10-22T04:54:20;24.30;;;15.00;;
73632;SDS011;61927;50.080;14.418;2022-10-22T04:56:46;28.10;;;15.05;;
73632;SDS011;61927;50.080;14.418;2022-10-22T04:59:12;23.65;;;14.63;;
73632;SDS011;61927;50.080;14.418;2022-10-22T05:01:42;26.77;;;14.25;;
73632;SDS011;61927;50.080;14.418;2022-10-22T05:04:12;32.58;;;14.70;;
73632;SDS011;61927;50.080;14.418;2022-10-22T05:06:40;26.17;;;14.23;;
73632;SDS011;61927;50.080;14.418;2022-10-22T05:09:07;24.92;;;13.98;;
73632;SDS011;61927;50.080;14.418;2022-10-22T05:11:36;23.90;;;15.45;;
73632;SDS011;61927;50.080;14.418;2022-10-22T05:14:05;21.75;;;14.02;;
73632;SDS011;61927;50.080;14.418;2022-10-22T05:16:32;27.95;;;14.40;;
73632;SDS011;61927;50.080;14.418;2022-10-22T05:18:59;23.20;;;14.20;;
73632;SDS011;61927;50.080;14.418;2022-10-22T05:21:26;21.58;;;13.98;;
73632;SDS011;61927;50.080;14.418;2022-10-22T05:23:52;28.10;;;14.80;;
73632;SDS011;61927;50.080;14.418;2022-10-22T05:26:19;22.80;;;13.77;;
73632;SDS011;61927;50.080;14.418;2022-10-22T05:28:46;26.48;;;14.07;;
73632;SDS011;61927;50.080;14.418;2022-10-22T05:31:13;24.10;;;14.15;;
73632;SDS011;61927;50.080;14.418;2022-10-22T05:33:40;22.55;;;14.82;;
73632;SDS011;61927;50.080;14.418;2022-10-22T05:36:07;27.92;;;14.43;;
73632;SDS011;61927;50.080;14.418;2022-10-22T05:38:36;22.30;;;14.48;;
73632;SDS011;61927;50.080;14.418;2022-10-22T05:41:03;28.50;;;14.65;;
73632;SDS011;61927;50.080;14.418;2022-10-22T05:43:30;25.27;;;14.65;;
73632;SDS011;61927;50.080;14.418;2022-10-22T05:46:00;27.90;;;15.07;;
73632;SDS011;61927;50.080;14.418;2022-10-22T05:48:28;24.05;;;14.52;;
73632;SDS011;61927;50.080;14.418;2022-10-22T05:50:54;28.27;;;15.18;;
73632;SDS011;61927;50.080;14.418;2022-10-22T05:53:20;27.83;;;14.48;;
73632;SDS011;61927;50.080;14.418;2022-10-22T05:55:46;30.55;;;14.68;;
73632;SDS011;61927;50.080;14.418;2022-10-22T05:58:11;22.33;;;14.85;;
73632;SDS011;61927;50.080;14.418;2022-10-22T06:00:37;24.40;;;14.63;;
73632;SDS011;61927;50.080;14.418;2022-10-22T06:03:03;28.92;;;16.58;;
73632;SDS011;61927;50.080;14.418;2022-10-22T06:05:28;25.92;;;14.23;;
73632;SDS011;61927;50.080;14.418;2022-10-22T06:07:54;24.48;;;14.63;;
73632;SDS011;61927;50.080;14.418;2022-10-22T06:10:21;28.27;;;15.02;;
73632;SDS011;61927;50.080;14.418;2022-10-22T06:12:48;23.40;;;14.15;;
73632;SDS011;61927;50.080;14.418;2022-10-22T06:15:14;22.77;;;14.25;;
73632;SDS011;61927;50.080;14.418;2022-10-22T06:17:42;24.63;;;14.10;;
73632;SDS011;61927;50.080;14.418;2022-10-22T06:20:08;20.92;;;14.23;;
73632;SDS011;61927;50.080;14.418;2022-10-22T06:22:35;23.45;;;15.02;;
73632;SDS011;61927;50.080;14.418;2022-10-22T06:25:00;26.25;;;13.95;;
73632;SDS011;61927;50.080;14.418;2022-10-22T06:27:26;23.65;;;13.93;;
73632;SDS011;61927;50.080;14.418;2022-10-22T06:29:52;25.52;;;15.45;;
73632;SDS011;61927;50.080;14.418;2022-10-22T06:32:17;23.90;;;15.10;;
73632;SDS011;61927;50.080;14.418;2022-10-22T06:34:43;26.05;;;13.68;;
73632;SDS011;61927;50.080;14.418;2022-10-22T06:37:09;26.48;;;14.20;;
73632;SDS011;61927;50.080;14.418;2022-10-22T06:39:34;26.55;;;14.68;;
73632;SDS011;61927;50.080;14.418;2022-10-22T06:42:00;27.15;;;15.07;;
73632;SDS011;61927;50.080;14.418;2022-10-22T06:44:26;24.17;;;15.02;;
73632;SDS011;61927;50.080;14.418;2022-10-22T06:46:51;25.73;;;14.25;;
73632;SDS011;61927;50.080;14.418;2022-10-22T06:49:17;23.20;;;14.10;;
73632;SDS011;61927;50.080;14.418;2022-10-22T06:51:44;34.22;;;15.27;;
73632;SDS011;61927;50.080;14.418;2022-10-22T06:54:13;38.38;;;22.40;;
73632;SDS011;61927;50.080;14.418;2022-10-22T06:56:38;23.83;;;14.27;;
73632;SDS011;61927;50.080;14.418;2022-10-22T06:59:04;26.20;;;14.18;;
73632;SDS011;61927;50.080;14.418;2022-10-22T07:01:30;30.48;;;15.38;;
73632;SDS011;61927;50.080;14.418;2022-10-22T07:03:58;26.58;;;13.60;;
73632;SDS011;61927;50.080;14.418;2022-10-22T07:06:24;25.20;;;13.95;;
73632;SDS011;61927;50.080;14.418;2022-10-22T07:08:51;22.77;;;14.57;;
73632;SDS011;61927;50.080;14.418;2022-10-22T07:11:19;26.13;;;14.43;;
73632;SDS011;61927;50.080;14.418;2022-10-22T07:13:47;21.65;;;13.73;;
73632;SDS011;61927;50.080;14.418;2022-10-22T07:16:13;26.83;;;14.25;;
73632;SDS011;61927;50.080;14.418;2022-10-22T07:18:40;26.60;;;14.15;;
73632;SDS011;61927;50.080;14.418;2022-10-22T07:21:06;23.58;;;14.23;;
73632;SDS011;61927;50.080;14.418;2022-10-22T07:23:33;27.17;;;14.45;;
73632;SDS011;61927;50.080;14.418;2022-10-22T07:25:59;25.20;;;15.10;;
73632;SDS011;61927;50.080;14.418;2022-10-22T07:28:27;28.40;;;16.02;;
73632;SDS011;61927;50.080;14.418;2022-10-22T07:30:52;30.00;;;18.65;;
73632;SDS011;61927;50.080;14.418;2022-10-22T07:33:18;26.95;;;17.20;;
73632;SDS011;61927;50.080;14.418;2022-10-22T07:35:44;23.63;;;14.63;;
73632;SDS011;61927;50.080;14.418;2022-10-22T07:38:09;22.40;;;13.75;;
73632;SDS011;61927;50.080;14.418;2022-10-22T07:40:35;29.05;;;14.60;;
73632;SDS011;61927;50.080;14.418;2022-10-22T07:43:01;26.98;;;15.38;;
73632;SDS011;61927;50.080;14.418;2022-10-22T07:45:27;25.20;;;15.45;;
73632;SDS011;61927;50.080;14.418;2022-10-22T07:47:53;22.48;;;13.45;;
73632;SDS011;61927;50.080;14.418;2022-10-22T07:50:19;27.27;;;14.02;;
73632;SDS011;61927;50.080;14.418;2022-10-22T07:52:45;28.80;;;14.10;;
73632;SDS011;61927;50.080;14.418;2022-10-22T07:55:10;26.20;;;13.90;;
73632;SDS011;61927;50.080;14.418;2022-10-22T07:57:38;30.20;;;15.02;;
73632;SDS011;61927;50.080;14.418;2022-10-22T08:00:07;22.73;;;14.70;;
73632;SDS011;61927;50.080;14.418;2022-10-22T08:02:33;27.92;;;15.35;;
73632;SDS011;61927;50.080;14.418;2022-10-22T08:04:59;23.40;;;15.82;;
73632;SDS011;61927;50.080;14.418;2022-10-22T08:07:25;26.48;;;16.40;;
73632;SDS011;61927;50.080;14.418;2022-10-22T08:09:50;26.98;;;15.32;;
73632;SDS011;61927;50.080;14.418;2022-10-22T08:12:16;31.98;;;16.70;;
73632;SDS011;61927;50.080;14.418;2022-10-22T08:14:41;25.42;;;15.27;;
73632;SDS011;61927;50.080;14.418;2022-10-22T08:17:07;27.92;;;15.52;;
73632;SDS011;61927;50.080;14.418;2022-10-22T08:19:32;27.60;;;16.00;;
73632;SDS011;61927;50.080;14.418;2022-10-22T08:21:59;26.75;;;15.95;;
73632;SDS011;61927;50.080;14.418;2022-10-22T08:24:25;24.00;;;15.65;;
73632;SDS011;61927;50.080;14.418;2022-10-22T08:26:51;29.90;;;16.15;;
73632;SDS011;61927;50.080;14.418;2022-10-22T08:29:20;25.90;;;16.45;;
73632;SDS011;61927;50.080;14.418;2022-10-22T08:31:47;26.67;;;16.38;;
73632;SDS011;61927;50.080;14.418;2022-10-22T08:34:14;24.92;;;15.27;;
73632;SDS011;61927;50.080;14.418;2022-10-22T08:36:40;26.80;;;15.65;;
73632;SDS011;61927;50.080;14.418;2022-10-22T08:39:05;27.67;;;15.80;;
73632;SDS011;61927;50.080;14.418;2022-10-22T08:41:31;24.40;;;15.80;;
73632;SDS011;61927;50.080;14.418;2022-10-22T08:44:09;26.23;;;16.77;;
73632;SDS011;61927;50.080;14.418;2022-10-22T08:49:20;27.45;;;16.95;;
73632;SDS011;61927;50.080;14.418;2022-10-22T08:51:50;33.65;;;18.02;;
73632;SDS011;61927;50.080;14.418;2022-10-22T08:54:17;28.85;;;17.42;;
73632;SDS011;61927;50.080;14.418;2022-10-22T08:59:46;26.25;;;15.88;;
73632;SDS011;61927;50.080;14.418;2022-10-22T09:04:59;27.65;;;16.85;;
73632;SDS011;61927;50.080;14.418;2022-10-22T09:07:30;33.97;;;17.95;;
73632;SDS011;61927;50.080;14.418;2022-10-22T09:09:56;32.45;;;17.23;;
73632;SDS011;61927;50.080;14.418;2022-10-22T09:12:24;31.45;;;19.70;;
73632;SDS011;61927;50.080;14.418;2022-10-22T09:14:51;28.25;;;17.38;;
73632;SDS011;61927;50.080;14.418;2022-10-22T09:17:23;29.90;;;17.02;;
73632;SDS011;61927;50.080;14.418;2022-10-22T09:22:59;22.90;;;15.90;;
73632;SDS011;61927;50.080;14.418;2022-10-22T09:25:38;28.83;;;17.42;;
73632;SDS011;61927;50.080;14.418;2022-10-22T09:28:04;27.13;;;17.45;;
73632;SDS011;61927;50.080;14.418;2022-10-22T09:30:32;31.42;;;19.85;;
73632;SDS011;61927;50.080;14.418;2022-10-22T09:33:06;38.88;;;19.90;;
73632;SDS011;61927;50.080;14.418;2022-10-22T09:35:57;27.02;;;16.50;;
73632;SDS011;61927;50.080;14.418;2022-10-22T09:38:31;22.70;;;15.05;;
73632;SDS011;61927;50.080;14.418;2022-10-22T09:40:59;26.67;;;16.45;;
73632;SDS011;61927;50.080;14.418;2022-10-22T09:43:28;26.15;;;15.10;;
73632;SDS011;61927;50.080;14.418;2022-10-22T09:46:00;30.15;;;15.18;;
73632;SDS011;61927;50.080;14.418;2022-10-22T09:56:28;41.13;;;17.08;;
73632;SDS011;61927;50.080;14.418;2022-10-22T09:59:03;20.98;;;14.68;;
73632;SDS011;61927;50.080;14.418;2022-10-22T10:01:30;34.92;;;15.30;;
73632;SDS011;61927;50.080;14.418;2022-10-22T10:04:12;28.65;;;16.17;;
73632;SDS011;61927;50.080;14.418;2022-10-22T10:06:40;24.30;;;15.15;;
73632;SDS011;61927;50.080;14.418;2022-10-22T10:17:28;24.42;;;14.57;;
73632;SDS011;61927;50.080;14.418;2022-10-22T10:27:41;19.80;;;14.25;;
73632;SDS011;61927;50.080;14.418;2022-10-22T10:30:15;21.20;;;14.50;;
73632;SDS011;61927;50.080;14.418;2022-10-22T10:32:51;21.90;;;15.20;;
73632;SDS011;61927;50.080;14.418;2022-10-22T10:35:34;26.92;;;15.20;;
73632;SDS011;61927;50.080;14.418;2022-10-22T10:41:06;25.92;;;14.77;;
73632;SDS011;61927;50.080;14.418;2022-10-22T10:49:40;28.70;;;19.38;;
73632;SDS011;61927;50.080;14.418;2022-10-22T10:52:16;32.83;;;21.30;;
73632;SDS011;61927;50.080;14.418;2022-10-22T11:00:21;28.08;;;14.90;;
73632;SDS011;61927;50.080;14.418;2022-10-22T11:08:29;28.90;;;17.05;;
73632;SDS011;61927;50.080;14.418;2022-10-22T11:10:59;24.58;;;16.48;;
73632;SDS011;61927;50.080;14.418;2022-10-22T11:16:20;31.83;;;19.35;;
73632;SDS011;61927;50.080;14.418;2022-10-22T11:26:48;14.50;;;6.20;;
73632;SDS011;61927;50.080;14.418;2022-10-22T11:29:30;7.72;;;5.60;;
73632;SDS011;61927;50.080;14.418;2022-10-22T11:32:03;12.63;;;6.70;;
73632;SDS011;61927;50.080;14.418;2022-10-22T11:34:39;10.48;;;4.88;;
73632;SDS011;61927;50.080;14.418;2022-10-22T11:37:10;7.35;;;4.75;;
73632;SDS011;61927;50.080;14.418;2022-10-22T11:39:39;11.18;;;4.60;;
73632;SDS011;61927;50.080;14.418;2022-10-22T11:42:10;9.93;;;4.68;;
73632;SDS011;61927;50.080;14.418;2022-10-22T11:44:57;5.60;;;4.47;;
73632;SDS011;61927;50.080;14.418;2022-10-22T11:47:24;8.40;;;5.68;;
73632;SDS011;61927;50.080;14.418;2022-10-22T11:49:57;8.93;;;4.80;;
73632;SDS011;61927;50.080;14.418;2022-10-22T11:52:44;5.57;;;4.40;;
73632;SDS011;61927;50.080;14.418;2022-10-22T11:55:29;6.35;;;4.43;;
73632;SDS011;61927;50.080;14.418;2022-10-22T11:58:26;10.77;;;4.53;;
73632;SDS011;61927;50.080;14.418;2022-10-22T12:08:55;5.25;;;4.38;;
73632;SDS011;61927;50.080;14.418;2022-10-22T12:13:57;4.63;;;3.72;;
73632;SDS011;61927;50.080;14.418;2022-10-22T12:18:59;6.70;;;3.63;;
73632;SDS011;61927;50.080;14.418;2022-10-22T12:21:28;8.38;;;4.03;;
73632;SDS011;61927;50.080;14.418;2022-10-22T12:23:57;5.97;;;2.83;;
73632;SDS011;61927;50.080;14.418;2022-10-22T12:26:26;7.70;;;3.70;;
73632;SDS011;61927;50.080;14.418;2022-10-22T12:28:57;7.22;;;3.28;;
73632;SDS011;61927;50.080;14.418;2022-10-22T12:31:24;4.43;;;3.30;;
73632;SDS011;61927;50.080;14.418;2022-10-22T12:33:57;2.60;;;2.33;;
73632;SDS011;61927;50.080;14.418;2022-10-22T12:36:26;5.18;;;4.07;;
73632;SDS011;61927;50.080;14.418;2022-10-22T12:38:59;4.20;;;2.28;;
73632;SDS011;61927;50.080;14.418;2022-10-22T12:41:33;4.57;;;2.05;;
73632;SDS011;61927;50.080;14.418;2022-10-22T12:44:00;3.03;;;2.72;;
73632;SDS011;61927;50.080;14.418;2022-10-22T12:46:28;2.60;;;2.40;;
73632;SDS011;61927;50.080;14.418;2022-10-22T12:49:00;6.05;;;2.55;;
73632;SDS011;61927;50.080;14.418;2022-10-22T12:51:27;6.15;;;2.42;;
73632;SDS011;61927;50.080;14.418;2022-10-22T12:53:53;43.72;;;29.00;;
73632;SDS011;61927;50.080;14.418;2022-10-22T12:56:22;5.15;;;2.53;;
73632;SDS011;61927;50.080;14.418;2022-10-22T12:58:51;4.63;;;3.28;;
73632;SDS011;61927;50.080;14.418;2022-10-22T13:01:23;8.48;;;3.10;;
73632;SDS011;61927;50.080;14.418;2022-10-22T13:04:02;3.38;;;2.17;;
73632;SDS011;61927;50.080;14.418;2022-10-22T13:06:44;10.55;;;2.50;;
73632;SDS011;61927;50.080;14.418;2022-10-22T13:09:12;4.72;;;1.95;;
73632;SDS011;61927;50.080;14.418;2022-10-22T13:12:03;2.70;;;2.03;;
73632;SDS011;61927;50.080;14.418;2022-10-22T13:14:31;5.68;;;2.00;;
73632;SDS011;61927;50.080;14.418;2022-10-22T13:17:40;5.85;;;2.22;;
73632;SDS011;61927;50.080;14.418;2022-10-22T13:20:19;5.75;;;2.03;;
73632;SDS011;61927;50.080;14.418;2022-10-22T13:22:56;4.70;;;2.05;;
73632;SDS011;61927;50.080;14.418;2022-10-22T13:25:25;2.53;;;2.10;;
73632;SDS011;61927;50.080;14.418;2022-10-22T13:30:31;1.92;;;1.80;;
73632;SDS011;61927;50.080;14.418;2022-10-22T13:33:23;9.02;;;3.55;;
73632;SDS011;61927;50.080;14.418;2022-10-22T13:35:50;2.33;;;1.73;;
73632;SDS011;61927;50.080;14.418;2022-10-22T13:38:20;2.20;;;2.10;;
73632;SDS011;61927;50.080;14.418;2022-10-22T13:40:47;4.28;;;2.65;;
73632;SDS011;61927;50.080;14.418;2022-10-22T13:43:14;4.18;;;2.90;;
73632;SDS011;61927;50.080;14.418;2022-10-22T13:45:41;3.13;;;1.52;;
73632;SDS011;61927;50.080;14.418;2022-10-22T13:48:11;6.88;;;4.85;;
73632;SDS011;61927;50.080;14.418;2022-10-22T13:50:40;4.93;;;2.35;;
73632;SDS011;61927;50.080;14.418;2022-10-22T13:53:08;3.55;;;3.13;;
73632;SDS011;61927;50.080;14.418;2022-10-22T13:55:42;3.78;;;1.73;;
73632;SDS011;61927;50.080;14.418;2022-10-22T13:58:10;8.35;;;2.25;;
73632;SDS011;61927;50.080;14.418;2022-10-22T14:00:36;2.13;;;1.88;;
73632;SDS011;61927;50.080;14.418;2022-10-22T14:03:03;3.67;;;1.98;;
73632;SDS011;61927;50.080;14.418;2022-10-22T14:05:30;2.00;;;1.90;;
73632;SDS011;61927;50.080;14.418;2022-10-22T14:08:00;3.58;;;3.00;;
73632;SDS011;61927;50.080;14.418;2022-10-22T14:10:26;2.78;;;2.33;;
73632;SDS011;61927;50.080;14.418;2022-10-22T14:12:51;2.65;;;2.03;;
73632;SDS011;61927;50.080;14.418;2022-10-22T14:15:18;3.13;;;1.55;;
73632;SDS011;61927;50.080;14.418;2022-10-22T14:17:51;2.08;;;1.75;;
73632;SDS011;61927;50.080;14.418;2022-10-22T14:20:21;6.53;;;2.05;;
73632;SDS011;61927;50.080;14.418;2022-10-22T14:22:49;5.70;;;1.98;;
73632;SDS011;61927;50.080;14.418;2022-10-22T14:25:23;4.32;;;1.98;;
73632;SDS011;61927;50.080;14.418;2022-10-22T14:27:50;13.65;;;2.35;;
73632;SDS011;61927;50.080;14.418;2022-10-22T14:30:20;9.02;;;2.40;;
73632;SDS011;61927;50.080;14.418;2022-10-22T14:32:48;9.30;;;2.80;;
73632;SDS011;61927;50.080;14.418;2022-10-22T14:35:15;4.93;;;2.10;;
73632;SDS011;61927;50.080;14.418;2022-10-22T14:37:43;8.82;;;2.30;;
73632;SDS011;61927;50.080;14.418;2022-10-22T14:40:10;12.40;;;1.90;;
73632;SDS011;61927;50.080;14.418;2022-10-22T14:42:38;2.92;;;1.85;;
73632;SDS011;61927;50.080;14.418;2022-10-22T14:45:08;5.85;;;1.80;;
73632;SDS011;61927;50.080;14.418;2022-10-22T14:47:39;6.00;;;4.22;;
73632;SDS011;61927;50.080;14.418;2022-10-22T14:50:05;7.72;;;5.70;;
73632;SDS011;61927;50.080;14.418;2022-10-22T14:52:32;15.90;;;7.40;;
73632;SDS011;61927;50.080;14.418;2022-10-22T14:54:58;13.40;;;8.10;;
73632;SDS011;61927;50.080;14.418;2022-10-22T14:57:24;12.02;;;8.55;;
73632;SDS011;61927;50.080;14.418;2022-10-22T14:59:49;16.92;;;8.73;;
73632;SDS011;61927;50.080;14.418;2022-10-22T15:02:19;15.85;;;10.13;;
73632;SDS011;61927;50.080;14.418;2022-10-22T15:04:45;15.55;;;9.02;;
73632;SDS011;61927;50.080;14.418;2022-10-22T15:07:12;14.65;;;9.80;;
73632;SDS011;61927;50.080;14.418;2022-10-22T15:09:37;13.95;;;9.23;;
73632;SDS011;61927;50.080;14.418;2022-10-22T15:12:03;26.73;;;10.57;;
73632;SDS011;61927;50.080;14.418;2022-10-22T15:14:29;23.65;;;11.20;;
73632;SDS011;61927;50.080;14.418;2022-10-22T15:16:55;21.98;;;10.68;;
73632;SDS011;61927;50.080;14.418;2022-10-22T15:19:20;25.92;;;11.77;;
73632;SDS011;61927;50.080;14.418;2022-10-22T15:21:46;20.98;;;13.18;;
73632;SDS011;61927;50.080;14.418;2022-10-22T15:24:12;28.40;;;12.82;;
73632;SDS011;61927;50.080;14.418;2022-10-22T15:26:37;19.83;;;11.32;;
73632;SDS011;61927;50.080;14.418;2022-10-22T15:29:03;35.90;;;17.33;;
73632;SDS011;61927;50.080;14.418;2022-10-22T15:34:11;21.92;;;12.63;;
73632;SDS011;61927;50.080;14.418;2022-10-22T15:36:37;23.88;;;13.52;;
73632;SDS011;61927;50.080;14.418;2022-10-22T15:39:06;11.40;;;7.15;;
73632;SDS011;61927;50.080;14.418;2022-10-22T15:41:33;15.07;;;8.70;;
73632;SDS011;61927;50.080;14.418;2022-10-22T15:43:59;21.65;;;13.10;;
73632;SDS011;61927;50.080;14.418;2022-10-22T15:46:25;45.58;;;20.45;;
73632;SDS011;61927;50.080;14.418;2022-10-22T15:48:52;24.45;;;13.30;;
73632;SDS011;61927;50.080;14.418;2022-10-22T15:51:18;59.30;;;31.02;;
73632;SDS011;61927;50.080;14.418;2022-10-22T15:53:53;42.55;;;24.58;;
73632;SDS011;61927;50.080;14.418;2022-10-22T15:56:21;28.15;;;12.85;;
73632;SDS011;61927;50.080;14.418;2022-10-22T15:58:50;30.25;;;11.73;;
73632;SDS011;61927;50.080;14.418;2022-10-22T16:01:17;23.98;;;11.75;;
73632;SDS011;61927;50.080;14.418;2022-10-22T16:03:42;30.55;;;13.93;;
73632;SDS011;61927;50.080;14.418;2022-10-22T16:06:08;34.70;;;14.95;;
73632;SDS011;61927;50.080;14.418;2022-10-22T16:08:34;36.03;;;15.18;;
73632;SDS011;61927;50.080;14.418;2022-10-22T16:10:59;24.02;;;13.93;;